sensor_id;sensor_type;location;lat;lon;timestamp;temperature;humidity
38788;DHT22;24536;45.488;12.238;2022-07-05T00:01:18;27.80;60.00
38788;DHT22;24536;45.488;12.238;2022-07-05T00:03:44;27.70;61.40
38788;DHT22;24536;45.488;12.238;2022-07-05T00:06:10;27.30;62.00
38788;DHT22;24536;45.488;12.238;2022-07-05T00:08:35;27.30;61.80
38788;DHT22;24536;45.488;12.238;2022-07-05T00:11:01;27.20;63.40
38788;DHT22;24536;45.488;12.238;2022-07-05T00:30:14;27.20;63.20
38788;DHT22;24536;45.488;12.238;2022-07-05T00:32:40;27.30;63.80
38788;DHT22;24536;45.488;12.238;2022-07-05T00:35:07;27.30;62.70
38788;DHT22;24536;45.488;12.238;2022-07-05T00:37:33;27.40;62.70
38788;DHT22;24536;45.488;12.238;2022-07-05T00:39:59;27.40;62.70
38788;DHT22;24536;45.488;12.238;2022-07-05T00:42:24;27.40;63.00
38788;DHT22;24536;45.488;12.238;2022-07-05T00:44:50;27.00;64.80
38788;DHT22;24536;45.488;12.238;2022-07-05T00:47:16;26.90;64.90
38788;DHT22;24536;45.488;12.238;2022-07-05T00:49:42;26.80;64.60
38788;DHT22;24536;45.488;12.238;2022-07-05T00:52:08;26.80;65.40
38788;DHT22;24536;45.488;12.238;2022-07-05T00:54:36;26.80;64.50
38788;DHT22;24536;45.488;12.238;2022-07-05T00:57:03;26.70;65.30
38788;DHT22;24536;45.488;12.238;2022-07-05T00:59:30;26.80;64.60
38788;DHT22;24536;45.488;12.238;2022-07-05T01:01:56;26.90;64.80
38788;DHT22;24536;45.488;12.238;2022-07-05T01:04:22;26.90;65.10
38788;DHT22;24536;45.488;12.238;2022-07-05T01:06:50;26.90;64.50
38788;DHT22;24536;45.488;12.238;2022-07-05T01:09:17;26.90;64.50
38788;DHT22;24536;45.488;12.238;2022-07-05T01:11:44;26.90;64.60
38788;DHT22;24536;45.488;12.238;2022-07-05T01:14:16;26.90;65.10
38788;DHT22;24536;45.488;12.238;2022-07-05T01:16:42;26.90;64.90
38788;DHT22;24536;45.488;12.238;2022-07-05T01:19:10;26.90;64.60
38788;DHT22;24536;45.488;12.238;2022-07-05T01:21:42;27.00;64.50
38788;DHT22;24536;45.488;12.238;2022-07-05T01:30:52;27.10;64.50
38788;DHT22;24536;45.488;12.238;2022-07-05T01:33:18;27.00;64.90
38788;DHT22;24536;45.488;12.238;2022-07-05T01:35:44;27.00;64.60
38788;DHT22;24536;45.488;12.238;2022-07-05T01:38:11;27.00;64.30
38788;DHT22;24536;45.488;12.238;2022-07-05T01:40:38;27.00;64.10
38788;DHT22;24536;45.488;12.238;2022-07-05T01:43:04;27.10;64.00
38788;DHT22;24536;45.488;12.238;2022-07-05T01:45:30;27.10;63.90
38788;DHT22;24536;45.488;12.238;2022-07-05T01:48:11;27.20;63.80
38788;DHT22;24536;45.488;12.238;2022-07-05T01:50:48;27.10;63.50
38788;DHT22;24536;45.488;12.238;2022-07-05T01:53:18;27.00;63.60
38788;DHT22;24536;45.488;12.238;2022-07-05T01:55:44;27.00;63.40
38788;DHT22;24536;45.488;12.238;2022-07-05T01:58:10;27.10;63.60
38788;DHT22;24536;45.488;12.238;2022-07-05T02:00:47;26.90;64.20
38788;DHT22;24536;45.488;12.238;2022-07-05T02:03:14;26.70;64.80
38788;DHT22;24536;45.488;12.238;2022-07-05T02:05:41;26.60;65.40
38788;DHT22;24536;45.488;12.238;2022-07-05T02:08:08;26.40;66.00
38788;DHT22;24536;45.488;12.238;2022-07-05T02:10:37;26.40;65.30
38788;DHT22;24536;45.488;12.238;2022-07-05T02:13:04;26.50;65.40
38788;DHT22;24536;45.488;12.238;2022-07-05T02:15:37;26.60;65.00
38788;DHT22;24536;45.488;12.238;2022-07-05T02:18:04;26.40;65.90
38788;DHT22;24536;45.488;12.238;2022-07-05T02:20:30;26.40;65.50
38788;DHT22;24536;45.488;12.238;2022-07-05T02:22:56;26.40;65.50
38788;DHT22;24536;45.488;12.238;2022-07-05T02:25:23;26.40;65.30
38788;DHT22;24536;45.488;12.238;2022-07-05T02:27:50;26.50;65.30
38788;DHT22;24536;45.488;12.238;2022-07-05T02:30:16;26.60;65.00
38788;DHT22;24536;45.488;12.238;2022-07-05T02:32:42;26.60;65.30
38788;DHT22;24536;45.488;12.238;2022-07-05T02:35:09;26.70;64.60
38788;DHT22;24536;45.488;12.238;2022-07-05T02:37:36;26.70;64.50
38788;DHT22;24536;45.488;12.238;2022-07-05T02:40:03;26.70;64.60
38788;DHT22;24536;45.488;12.238;2022-07-05T02:42:28;26.60;64.60
38788;DHT22;24536;45.488;12.238;2022-07-05T02:44:54;26.60;64.90
38788;DHT22;24536;45.488;12.238;2022-07-05T02:47:20;26.60;64.90
38788;DHT22;24536;45.488;12.238;2022-07-05T02:49:45;26.50;65.00
38788;DHT22;24536;45.488;12.238;2022-07-05T02:52:11;26.00;66.50
38788;DHT22;24536;45.488;12.238;2022-07-05T02:54:37;25.80;67.40
38788;DHT22;24536;45.488;12.238;2022-07-05T02:57:05;25.50;68.70
38788;DHT22;24536;45.488;12.238;2022-07-05T02:59:30;25.50;68.90
38788;DHT22;24536;45.488;12.238;2022-07-05T03:01:56;25.40;69.20
38788;DHT22;24536;45.488;12.238;2022-07-05T03:04:22;25.30;70.00
38788;DHT22;24536;45.488;12.238;2022-07-05T03:06:47;25.30;69.70
38788;DHT22;24536;45.488;12.238;2022-07-05T03:09:13;25.40;69.50
38788;DHT22;24536;45.488;12.238;2022-07-05T03:11:39;25.00;70.30
38788;DHT22;24536;45.488;12.238;2022-07-05T03:14:04;24.80;71.10
38788;DHT22;24536;45.488;12.238;2022-07-05T03:16:30;24.60;71.50
38788;DHT22;24536;45.488;12.238;2022-07-05T03:18:56;24.60;71.80
38788;DHT22;24536;45.488;12.238;2022-07-05T03:21:22;24.60;71.90
38788;DHT22;24536;45.488;12.238;2022-07-05T03:23:48;24.60;71.90
38788;DHT22;24536;45.488;12.238;2022-07-05T03:26:14;24.70;71.60
38788;DHT22;24536;45.488;12.238;2022-07-05T03:28:40;24.80;71.20
38788;DHT22;24536;45.488;12.238;2022-07-05T03:31:05;25.00;70.70
38788;DHT22;24536;45.488;12.238;2022-07-05T03:33:31;25.00;70.60
38788;DHT22;24536;45.488;12.238;2022-07-05T03:35:57;25.00;70.60
38788;DHT22;24536;45.488;12.238;2022-07-05T03:38:23;25.00;70.50
38788;DHT22;24536;45.488;12.238;2022-07-05T03:40:49;25.00;70.70
38788;DHT22;24536;45.488;12.238;2022-07-05T03:43:15;25.20;70.20
38788;DHT22;24536;45.488;12.238;2022-07-05T03:45:41;25.20;69.80
38788;DHT22;24536;45.488;12.238;2022-07-05T03:48:07;25.30;69.60
38788;DHT22;24536;45.488;12.238;2022-07-05T03:50:32;25.30;69.80
38788;DHT22;24536;45.488;12.238;2022-07-05T03:52:58;25.10;69.90
38788;DHT22;24536;45.488;12.238;2022-07-05T03:55:24;25.10;69.90
38788;DHT22;24536;45.488;12.238;2022-07-05T03:57:49;25.30;69.70
38788;DHT22;24536;45.488;12.238;2022-07-05T04:00:16;25.30;69.10
38788;DHT22;24536;45.488;12.238;2022-07-05T04:02:41;25.30;69.00
38788;DHT22;24536;45.488;12.238;2022-07-05T04:05:07;25.40;69.20
38788;DHT22;24536;45.488;12.238;2022-07-05T04:07:33;25.30;69.10
38788;DHT22;24536;45.488;12.238;2022-07-05T04:09:59;25.20;69.50
38788;DHT22;24536;45.488;12.238;2022-07-05T04:12:25;25.20;69.70
38788;DHT22;24536;45.488;12.238;2022-07-05T04:14:51;25.10;69.60
38788;DHT22;24536;45.488;12.238;2022-07-05T04:17:17;25.20;69.50
38788;DHT22;24536;45.488;12.238;2022-07-05T04:19:43;25.30;69.50
38788;DHT22;24536;45.488;12.238;2022-07-05T04:22:09;25.20;69.70
38788;DHT22;24536;45.488;12.238;2022-07-05T04:24:35;25.20;69.80
38788;DHT22;24536;45.488;12.238;2022-07-05T04:27:21;25.30;69.20
38788;DHT22;24536;45.488;12.238;2022-07-05T04:29:47;25.60;69.10
38788;DHT22;24536;45.488;12.238;2022-07-05T04:32:13;25.60;68.80
38788;DHT22;24536;45.488;12.238;2022-07-05T04:34:38;25.70;68.80
38788;DHT22;24536;45.488;12.238;2022-07-05T04:37:04;25.50;68.90
38788;DHT22;24536;45.488;12.238;2022-07-05T04:39:30;25.30;69.50
38788;DHT22;24536;45.488;12.238;2022-07-05T04:41:55;25.30;70.20
38788;DHT22;24536;45.488;12.238;2022-07-05T04:44:21;25.30;70.30
38788;DHT22;24536;45.488;12.238;2022-07-05T04:46:47;25.10;70.70
38788;DHT22;24536;45.488;12.238;2022-07-05T04:49:12;25.00;70.80
38788;DHT22;24536;45.488;12.238;2022-07-05T04:51:38;25.10;70.80
38788;DHT22;24536;45.488;12.238;2022-07-05T04:54:04;25.00;70.80
38788;DHT22;24536;45.488;12.238;2022-07-05T04:56:29;24.90;71.40
38788;DHT22;24536;45.488;12.238;2022-07-05T04:58:55;24.90;71.40
38788;DHT22;24536;45.488;12.238;2022-07-05T05:01:21;24.90;71.70
38788;DHT22;24536;45.488;12.238;2022-07-05T05:03:47;25.10;71.10
38788;DHT22;24536;45.488;12.238;2022-07-05T05:06:12;25.30;71.20
38788;DHT22;24536;45.488;12.238;2022-07-05T05:08:40;25.20;71.50
38788;DHT22;24536;45.488;12.238;2022-07-05T05:11:07;25.20;71.80
38788;DHT22;24536;45.488;12.238;2022-07-05T05:13:38;25.30;71.40
38788;DHT22;24536;45.488;12.238;2022-07-05T05:16:14;25.40;71.20
38788;DHT22;24536;45.488;12.238;2022-07-05T05:18:40;25.50;71.20
38788;DHT22;24536;45.488;12.238;2022-07-05T05:21:06;25.60;70.70
38788;DHT22;24536;45.488;12.238;2022-07-05T05:23:31;25.50;71.00
38788;DHT22;24536;45.488;12.238;2022-07-05T05:25:57;25.60;70.80
38788;DHT22;24536;45.488;12.238;2022-07-05T05:28:23;25.60;70.80
38788;DHT22;24536;45.488;12.238;2022-07-05T05:30:49;25.40;71.00
38788;DHT22;24536;45.488;12.238;2022-07-05T05:33:14;25.50;71.20
38788;DHT22;24536;45.488;12.238;2022-07-05T05:35:40;25.70;71.10
38788;DHT22;24536;45.488;12.238;2022-07-05T05:38:07;25.50;71.10
38788;DHT22;24536;45.488;12.238;2022-07-05T05:40:32;25.70;71.00
38788;DHT22;24536;45.488;12.238;2022-07-05T05:42:58;25.80;71.00
38788;DHT22;24536;45.488;12.238;2022-07-05T05:45:24;25.80;70.50
38788;DHT22;24536;45.488;12.238;2022-07-05T05:47:51;26.00;70.10
38788;DHT22;24536;45.488;12.238;2022-07-05T05:50:19;26.10;70.00
38788;DHT22;24536;45.488;12.238;2022-07-05T05:52:45;26.20;69.70
38788;DHT22;24536;45.488;12.238;2022-07-05T05:55:11;26.20;69.20
38788;DHT22;24536;45.488;12.238;2022-07-05T05:57:37;26.30;68.90
38788;DHT22;24536;45.488;12.238;2022-07-05T06:00:04;26.40;68.60
38788;DHT22;24536;45.488;12.238;2022-07-05T06:02:31;26.60;68.60
38788;DHT22;24536;45.488;12.238;2022-07-05T06:04:56;26.40;67.00
38788;DHT22;24536;45.488;12.238;2022-07-05T06:07:22;26.30;67.40
38788;DHT22;24536;45.488;12.238;2022-07-05T06:09:48;26.40;67.40
38788;DHT22;24536;45.488;12.238;2022-07-05T06:12:14;26.60;67.30
38788;DHT22;24536;45.488;12.238;2022-07-05T06:14:40;26.80;67.10
38788;DHT22;24536;45.488;12.238;2022-07-05T06:17:05;26.90;66.80
38788;DHT22;24536;45.488;12.238;2022-07-05T06:19:31;27.10;66.20
38788;DHT22;24536;45.488;12.238;2022-07-05T06:21:57;27.20;66.00
38788;DHT22;24536;45.488;12.238;2022-07-05T06:24:23;27.30;65.80
38788;DHT22;24536;45.488;12.238;2022-07-05T06:26:49;27.40;65.70
38788;DHT22;24536;45.488;12.238;2022-07-05T06:29:14;27.50;65.10
38788;DHT22;24536;45.488;12.238;2022-07-05T06:31:40;27.60;64.70
38788;DHT22;24536;45.488;12.238;2022-07-05T06:34:06;27.60;64.70
38788;DHT22;24536;45.488;12.238;2022-07-05T06:36:33;27.70;64.20
38788;DHT22;24536;45.488;12.238;2022-07-05T06:38:59;27.70;64.00
38788;DHT22;24536;45.488;12.238;2022-07-05T06:41:25;27.80;63.80
38788;DHT22;24536;45.488;12.238;2022-07-05T06:43:51;27.80;63.90
38788;DHT22;24536;45.488;12.238;2022-07-05T06:46:17;27.80;63.90
38788;DHT22;24536;45.488;12.238;2022-07-05T06:48:42;27.80;64.10
38788;DHT22;24536;45.488;12.238;2022-07-05T06:51:08;27.90;64.30
38788;DHT22;24536;45.488;12.238;2022-07-05T06:53:34;27.90;64.40
38788;DHT22;24536;45.488;12.238;2022-07-05T06:55:59;27.90;64.30
38788;DHT22;24536;45.488;12.238;2022-07-05T06:58:25;28.00;64.30
38788;DHT22;24536;45.488;12.238;2022-07-05T07:00:51;28.00;64.10
38788;DHT22;24536;45.488;12.238;2022-07-05T07:03:16;28.00;63.80
38788;DHT22;24536;45.488;12.238;2022-07-05T07:05:42;28.00;63.80
38788;DHT22;24536;45.488;12.238;2022-07-05T07:08:08;28.00;63.80
38788;DHT22;24536;45.488;12.238;2022-07-05T07:10:52;28.00;63.90
38788;DHT22;24536;45.488;12.238;2022-07-05T07:13:18;28.10;63.90
38788;DHT22;24536;45.488;12.238;2022-07-05T07:15:45;28.10;63.90
38788;DHT22;24536;45.488;12.238;2022-07-05T07:18:14;28.00;64.30
38788;DHT22;24536;45.488;12.238;2022-07-05T07:20:39;28.10;65.10
38788;DHT22;24536;45.488;12.238;2022-07-05T07:23:05;28.10;64.60
38788;DHT22;24536;45.488;12.238;2022-07-05T07:25:31;28.20;64.80
38788;DHT22;24536;45.488;12.238;2022-07-05T07:27:57;28.20;64.40
38788;DHT22;24536;45.488;12.238;2022-07-05T07:30:25;28.30;64.40
38788;DHT22;24536;45.488;12.238;2022-07-05T07:32:52;28.30;64.50
38788;DHT22;24536;45.488;12.238;2022-07-05T07:35:18;28.40;64.20
38788;DHT22;24536;45.488;12.238;2022-07-05T07:37:44;28.40;64.30
38788;DHT22;24536;45.488;12.238;2022-07-05T07:40:11;28.40;65.20
38788;DHT22;24536;45.488;12.238;2022-07-05T07:42:37;28.40;64.70
38788;DHT22;24536;45.488;12.238;2022-07-05T07:45:03;28.50;65.30
38788;DHT22;24536;45.488;12.238;2022-07-05T07:47:33;28.50;65.20
38788;DHT22;24536;45.488;12.238;2022-07-05T07:49:59;28.50;65.20
38788;DHT22;24536;45.488;12.238;2022-07-05T07:52:25;28.50;65.50
38788;DHT22;24536;45.488;12.238;2022-07-05T07:54:51;28.50;65.00
38788;DHT22;24536;45.488;12.238;2022-07-05T07:57:17;28.40;64.80
38788;DHT22;24536;45.488;12.238;2022-07-05T07:59:44;28.40;64.80
38788;DHT22;24536;45.488;12.238;2022-07-05T08:02:09;28.40;64.80
38788;DHT22;24536;45.488;12.238;2022-07-05T08:04:35;28.50;64.80
38788;DHT22;24536;45.488;12.238;2022-07-05T08:07:01;28.60;64.90
38788;DHT22;24536;45.488;12.238;2022-07-05T08:09:29;28.70;65.00
38788;DHT22;24536;45.488;12.238;2022-07-05T08:11:55;28.80;64.90
38788;DHT22;24536;45.488;12.238;2022-07-05T08:14:21;28.80;64.70
38788;DHT22;24536;45.488;12.238;2022-07-05T08:16:48;28.90;64.60
38788;DHT22;24536;45.488;12.238;2022-07-05T08:19:14;29.00;64.30
38788;DHT22;24536;45.488;12.238;2022-07-05T08:21:58;29.00;64.10
38788;DHT22;24536;45.488;12.238;2022-07-05T08:24:23;28.80;63.50
38788;DHT22;24536;45.488;12.238;2022-07-05T08:26:49;28.80;64.00
38788;DHT22;24536;45.488;12.238;2022-07-05T08:29:15;28.60;63.80
38788;DHT22;24536;45.488;12.238;2022-07-05T08:34:07;28.60;64.70
38788;DHT22;24536;45.488;12.238;2022-07-05T08:36:32;28.60;65.30
38788;DHT22;24536;45.488;12.238;2022-07-05T08:38:58;28.70;65.00
38788;DHT22;24536;45.488;12.238;2022-07-05T08:41:24;28.80;64.60
38788;DHT22;24536;45.488;12.238;2022-07-05T08:43:51;28.80;64.90
38788;DHT22;24536;45.488;12.238;2022-07-05T08:46:18;29.00;64.80
38788;DHT22;24536;45.488;12.238;2022-07-05T08:48:50;29.00;64.50
38788;DHT22;24536;45.488;12.238;2022-07-05T08:51:20;29.10;64.20
38788;DHT22;24536;45.488;12.238;2022-07-05T08:53:47;29.10;64.50
38788;DHT22;24536;45.488;12.238;2022-07-05T08:56:14;29.10;63.80
38788;DHT22;24536;45.488;12.238;2022-07-05T08:58:40;29.20;63.80
38788;DHT22;24536;45.488;12.238;2022-07-05T09:01:07;29.10;63.80
38788;DHT22;24536;45.488;12.238;2022-07-05T09:03:43;29.20;63.70
38788;DHT22;24536;45.488;12.238;2022-07-05T09:06:12;29.10;62.50
38788;DHT22;24536;45.488;12.238;2022-07-05T09:08:39;29.30;63.00
38788;DHT22;24536;45.488;12.238;2022-07-05T09:11:10;29.40;61.90
38788;DHT22;24536;45.488;12.238;2022-07-05T09:13:40;29.50;61.20
38788;DHT22;24536;45.488;12.238;2022-07-05T09:16:06;29.50;61.40
38788;DHT22;24536;45.488;12.238;2022-07-05T09:18:49;29.60;61.70
38788;DHT22;24536;45.488;12.238;2022-07-05T09:21:23;29.70;62.00
38788;DHT22;24536;45.488;12.238;2022-07-05T09:24:00;29.90;62.10
38788;DHT22;24536;45.488;12.238;2022-07-05T09:26:40;30.10;61.60
38788;DHT22;24536;45.488;12.238;2022-07-05T09:29:08;30.20;61.00
38788;DHT22;24536;45.488;12.238;2022-07-05T09:31:36;30.40;60.50
38788;DHT22;24536;45.488;12.238;2022-07-05T09:34:10;30.40;59.80
38788;DHT22;24536;45.488;12.238;2022-07-05T09:36:56;30.40;59.00
38788;DHT22;24536;45.488;12.238;2022-07-05T09:44:38;30.70;59.40
38788;DHT22;24536;45.488;12.238;2022-07-05T09:47:08;30.80;58.60
38788;DHT22;24536;45.488;12.238;2022-07-05T09:49:43;30.90;58.50
38788;DHT22;24536;45.488;12.238;2022-07-05T09:52:10;31.00;58.70
38788;DHT22;24536;45.488;12.238;2022-07-05T09:54:35;31.00;57.00
38788;DHT22;24536;45.488;12.238;2022-07-05T09:57:01;31.00;57.30
38788;DHT22;24536;45.488;12.238;2022-07-05T09:59:27;31.10;57.10
38788;DHT22;24536;45.488;12.238;2022-07-05T10:01:53;31.00;56.20
38788;DHT22;24536;45.488;12.238;2022-07-05T10:04:19;31.20;57.10
38788;DHT22;24536;45.488;12.238;2022-07-05T10:06:45;31.30;57.30
38788;DHT22;24536;45.488;12.238;2022-07-05T10:09:15;31.20;53.90
38788;DHT22;24536;45.488;12.238;2022-07-05T10:11:44;31.30;54.90
38788;DHT22;24536;45.488;12.238;2022-07-05T10:14:15;31.40;54.40
38788;DHT22;24536;45.488;12.238;2022-07-05T10:16:45;31.50;55.20
38788;DHT22;24536;45.488;12.238;2022-07-05T10:19:17;31.60;54.20
38788;DHT22;24536;45.488;12.238;2022-07-05T10:21:45;31.70;53.70
38788;DHT22;24536;45.488;12.238;2022-07-05T10:24:12;31.90;54.40
38788;DHT22;24536;45.488;12.238;2022-07-05T10:26:39;32.10;54.60
38788;DHT22;24536;45.488;12.238;2022-07-05T10:29:06;32.30;54.90
38788;DHT22;24536;45.488;12.238;2022-07-05T10:31:32;32.50;55.00
38788;DHT22;24536;45.488;12.238;2022-07-05T10:33:59;32.50;54.30
38788;DHT22;24536;45.488;12.238;2022-07-05T10:36:33;32.50;53.40
38788;DHT22;24536;45.488;12.238;2022-07-05T10:39:00;32.60;54.30
38788;DHT22;24536;45.488;12.238;2022-07-05T10:41:26;32.70;54.80
38788;DHT22;24536;45.488;12.238;2022-07-05T10:43:55;32.90;54.70
38788;DHT22;24536;45.488;12.238;2022-07-05T10:46:37;33.20;54.60
38788;DHT22;24536;45.488;12.238;2022-07-05T10:49:11;33.00;51.80
38788;DHT22;24536;45.488;12.238;2022-07-05T10:51:38;33.20;53.30
38788;DHT22;24536;45.488;12.238;2022-07-05T10:54:05;33.30;53.20
38788;DHT22;24536;45.488;12.238;2022-07-05T10:56:30;33.40;52.50
38788;DHT22;24536;45.488;12.238;2022-07-05T10:59:07;33.50;52.90
38788;DHT22;24536;45.488;12.238;2022-07-05T11:01:36;33.70;52.80
38788;DHT22;24536;45.488;12.238;2022-07-05T11:06:29;34.10;52.00
38788;DHT22;24536;45.488;12.238;2022-07-05T11:11:28;34.40;50.80
38788;DHT22;24536;45.488;12.238;2022-07-05T11:13:55;34.50;51.80
38788;DHT22;24536;45.488;12.238;2022-07-05T11:16:31;34.60;51.70
38788;DHT22;24536;45.488;12.238;2022-07-05T11:19:10;34.80;52.30
38788;DHT22;24536;45.488;12.238;2022-07-05T11:21:40;35.00;51.90
38788;DHT22;24536;45.488;12.238;2022-07-05T11:24:27;35.00;49.20
38788;DHT22;24536;45.488;12.238;2022-07-05T11:26:57;34.90;50.30
38788;DHT22;24536;45.488;12.238;2022-07-05T11:34:48;35.80;50.70
38788;DHT22;24536;45.488;12.238;2022-07-05T11:39:40;36.60;49.70
38788;DHT22;24536;45.488;12.238;2022-07-05T11:42:08;37.10;49.40
38788;DHT22;24536;45.488;12.238;2022-07-05T11:44:37;37.50;48.70
38788;DHT22;24536;45.488;12.238;2022-07-05T11:47:05;37.90;47.80
38788;DHT22;24536;45.488;12.238;2022-07-05T11:49:32;38.10;47.50
38788;DHT22;24536;45.488;12.238;2022-07-05T11:52:02;38.40;46.60
38788;DHT22;24536;45.488;12.238;2022-07-05T11:54:30;38.70;45.80
38788;DHT22;24536;45.488;12.238;2022-07-05T11:56:57;38.90;45.60
38788;DHT22;24536;45.488;12.238;2022-07-05T11:59:24;39.00;45.40
38788;DHT22;24536;45.488;12.238;2022-07-05T12:01:51;38.90;44.50
38788;DHT22;24536;45.488;12.238;2022-07-05T12:04:27;39.20;45.20
38788;DHT22;24536;45.488;12.238;2022-07-05T12:06:54;39.40;44.00
38788;DHT22;24536;45.488;12.238;2022-07-05T12:09:26;39.60;44.60
38788;DHT22;24536;45.488;12.238;2022-07-05T12:11:55;39.70;44.10
38788;DHT22;24536;45.488;12.238;2022-07-05T12:14:49;39.90;44.30
38788;DHT22;24536;45.488;12.238;2022-07-05T12:17:18;40.00;42.80
38788;DHT22;24536;45.488;12.238;2022-07-05T12:19:47;40.10;43.60
38788;DHT22;24536;45.488;12.238;2022-07-05T12:22:13;40.20;43.80
38788;DHT22;24536;45.488;12.238;2022-07-05T12:24:41;39.80;43.40
38788;DHT22;24536;45.488;12.238;2022-07-05T12:27:09;40.00;43.70
38788;DHT22;24536;45.488;12.238;2022-07-05T12:29:35;40.10;42.70
38788;DHT22;24536;45.488;12.238;2022-07-05T12:32:03;40.00;43.00
38788;DHT22;24536;45.488;12.238;2022-07-05T12:34:32;40.20;42.40
38788;DHT22;24536;45.488;12.238;2022-07-05T12:36:58;40.20;41.80
38788;DHT22;24536;45.488;12.238;2022-07-05T12:39:23;40.20;42.30
38788;DHT22;24536;45.488;12.238;2022-07-05T12:41:49;40.20;41.90
38788;DHT22;24536;45.488;12.238;2022-07-05T12:44:19;40.10;42.00
38788;DHT22;24536;45.488;12.238;2022-07-05T12:46:46;39.80;41.10
38788;DHT22;24536;45.488;12.238;2022-07-05T12:49:12;40.00;42.10
38788;DHT22;24536;45.488;12.238;2022-07-05T12:51:45;40.20;41.50
38788;DHT22;24536;45.488;12.238;2022-07-05T12:54:23;40.20;42.10
38788;DHT22;24536;45.488;12.238;2022-07-05T12:57:08;40.30;41.90
38788;DHT22;24536;45.488;12.238;2022-07-05T13:00:04;40.60;40.80
38788;DHT22;24536;45.488;12.238;2022-07-05T13:02:40;40.80;40.90
38788;DHT22;24536;45.488;12.238;2022-07-05T13:05:08;40.80;40.10
38788;DHT22;24536;45.488;12.238;2022-07-05T13:07:40;40.90;40.40
38788;DHT22;24536;45.488;12.238;2022-07-05T13:10:17;40.70;39.40
38788;DHT22;24536;45.488;12.238;2022-07-05T13:12:44;40.40;37.90
38788;DHT22;24536;45.488;12.238;2022-07-05T13:15:10;39.20;38.40
38788;DHT22;24536;45.488;12.238;2022-07-05T13:17:36;39.30;39.80
38788;DHT22;24536;45.488;12.238;2022-07-05T13:20:03;39.70;40.00
38788;DHT22;24536;45.488;12.238;2022-07-05T13:22:29;39.90;39.90
38788;DHT22;24536;45.488;12.238;2022-07-05T13:24:55;40.00;39.90
38788;DHT22;24536;45.488;12.238;2022-07-05T13:27:20;40.00;39.30
38788;DHT22;24536;45.488;12.238;2022-07-05T13:29:46;40.00;39.30
38788;DHT22;24536;45.488;12.238;2022-07-05T13:32:14;40.10;38.10
38788;DHT22;24536;45.488;12.238;2022-07-05T13:34:45;40.20;38.80
38788;DHT22;24536;45.488;12.238;2022-07-05T13:37:11;40.20;38.40
38788;DHT22;24536;45.488;12.238;2022-07-05T13:39:37;40.30;38.50
38788;DHT22;24536;45.488;12.238;2022-07-05T13:42:05;39.70;37.70
38788;DHT22;24536;45.488;12.238;2022-07-05T13:44:31;39.60;38.10
38788;DHT22;24536;45.488;12.238;2022-07-05T13:46:58;39.20;36.70
38788;DHT22;24536;45.488;12.238;2022-07-05T13:49:24;38.70;37.60
38788;DHT22;24536;45.488;12.238;2022-07-05T13:51:56;38.60;37.60
38788;DHT22;24536;45.488;12.238;2022-07-05T13:54:23;37.50;37.20
38788;DHT22;24536;45.488;12.238;2022-07-05T13:56:49;37.10;38.30
38788;DHT22;24536;45.488;12.238;2022-07-05T13:59:15;37.40;38.90
38788;DHT22;24536;45.488;12.238;2022-07-05T14:01:41;37.60;38.80
38788;DHT22;24536;45.488;12.238;2022-07-05T14:04:07;37.60;37.30
38788;DHT22;24536;45.488;12.238;2022-07-05T14:06:32;37.60;38.10
38788;DHT22;24536;45.488;12.238;2022-07-05T14:09:00;37.70;38.20
38788;DHT22;24536;45.488;12.238;2022-07-05T14:11:25;37.80;37.70
38788;DHT22;24536;45.488;12.238;2022-07-05T14:13:53;37.90;37.60
38788;DHT22;24536;45.488;12.238;2022-07-05T14:16:18;38.00;37.30
38788;DHT22;24536;45.488;12.238;2022-07-05T14:18:44;38.10;36.90
38788;DHT22;24536;45.488;12.238;2022-07-05T14:21:10;38.20;36.80
38788;DHT22;24536;45.488;12.238;2022-07-05T14:23:44;38.20;36.50
38788;DHT22;24536;45.488;12.238;2022-07-05T14:26:12;38.30;36.90
38788;DHT22;24536;45.488;12.238;2022-07-05T14:28:38;38.10;37.50
38788;DHT22;24536;45.488;12.238;2022-07-05T14:31:04;37.90;37.70
38788;DHT22;24536;45.488;12.238;2022-07-05T14:33:29;37.70;38.10
38788;DHT22;24536;45.488;12.238;2022-07-05T14:35:55;37.60;38.40
38788;DHT22;24536;45.488;12.238;2022-07-05T14:38:21;37.30;38.70
38788;DHT22;24536;45.488;12.238;2022-07-05T14:40:46;37.40;39.10
38788;DHT22;24536;45.488;12.238;2022-07-05T14:43:15;37.50;39.40
38788;DHT22;24536;45.488;12.238;2022-07-05T14:45:41;37.60;39.40
38788;DHT22;24536;45.488;12.238;2022-07-05T14:48:07;37.70;39.70
38788;DHT22;24536;45.488;12.238;2022-07-05T14:50:32;37.60;39.60
38788;DHT22;24536;45.488;12.238;2022-07-05T14:52:58;37.50;39.60
38788;DHT22;24536;45.488;12.238;2022-07-05T14:55:31;37.30;39.80
38788;DHT22;24536;45.488;12.238;2022-07-05T14:57:58;37.00;39.70
38788;DHT22;24536;45.488;12.238;2022-07-05T15:00:23;36.80;40.10
38788;DHT22;24536;45.488;12.238;2022-07-05T15:02:49;36.60;40.00
38788;DHT22;24536;45.488;12.238;2022-07-05T15:05:15;36.50;39.80
38788;DHT22;24536;45.488;12.238;2022-07-05T15:07:46;36.50;39.80
38788;DHT22;24536;45.488;12.238;2022-07-05T15:10:12;36.40;39.80
38788;DHT22;24536;45.488;12.238;2022-07-05T15:12:38;36.30;39.70
38788;DHT22;24536;45.488;12.238;2022-07-05T15:15:04;36.30;39.30
38788;DHT22;24536;45.488;12.238;2022-07-05T15:17:30;36.30;38.80
38788;DHT22;24536;45.488;12.238;2022-07-05T15:19:57;36.30;38.20
38788;DHT22;24536;45.488;12.238;2022-07-05T15:22:23;36.30;38.30
38788;DHT22;24536;45.488;12.238;2022-07-05T15:24:51;36.20;38.20
38788;DHT22;24536;45.488;12.238;2022-07-05T15:27:17;36.20;38.20
38788;DHT22;24536;45.488;12.238;2022-07-05T15:29:43;36.20;37.20
38788;DHT22;24536;45.488;12.238;2022-07-05T15:32:08;36.20;37.50
38788;DHT22;24536;45.488;12.238;2022-07-05T15:34:34;36.20;37.60
38788;DHT22;24536;45.488;12.238;2022-07-05T15:37:00;36.10;37.30
38788;DHT22;24536;45.488;12.238;2022-07-05T15:39:26;36.00;37.70
38788;DHT22;24536;45.488;12.238;2022-07-05T15:41:52;36.00;37.50
38788;DHT22;24536;45.488;12.238;2022-07-05T15:44:18;36.00;37.20
38788;DHT22;24536;45.488;12.238;2022-07-05T15:46:44;35.90;37.20
38788;DHT22;24536;45.488;12.238;2022-07-05T15:49:25;35.90;37.20
38788;DHT22;24536;45.488;12.238;2022-07-05T15:51:51;35.80;37.00
38788;DHT22;24536;45.488;12.238;2022-07-05T15:54:17;35.70;36.90
38788;DHT22;24536;45.488;12.238;2022-07-05T15:56:42;35.70;36.90
38788;DHT22;24536;45.488;12.238;2022-07-05T15:59:11;35.70;37.10
38788;DHT22;24536;45.488;12.238;2022-07-05T16:01:38;35.70;37.10